Terminal Aerodrome Forecast
Issued by NWS Sterling, VA

Home | Current Version | Previous Version | Text Only | Print | Product List | Glossary On
Versions: 1 2 3 4 5 6 7 8 9 10 11 12 13 14 15 16 17 18 19 20 21 22
000
FTUS41 KLWX 292117 AAA
TAFCHO
TAF AMD
KCHO 292117Z 2921/3018 08008KT 1SM +SHRA VCTS OVC012CB
     FM300000 07006KT 1 1/2SM SHRA OVC003
     FM301200 07007KT 1SM -SHRA OVC003=

USA.gov is the U.S. government's official web portal to all federal, state and local government web resources and services.